Sneads Ferry, NC (28460)

10:21 PM EDT on August 21, 2014 (GMT -0400)
Sneads Ferry | Change Station
CLOSE
Current Station
Personal Weather Station
Location: Sneads Ferry, NC
Elevation: 20 ft
Nearby Weather Stations

Elev 20 ft 34.53 °N, 77.43 °W | Updated 5 minutes ago

Clear
Clear
78.4 °F
Feels Like 81 °F
N
0.0
Wind Variable Wind from North
Gusts 0.0 mph

Today
High -- | Low -- °F
--% Chance of Precip.
Yesterday
High -- | Low -- °F
Precip. -- in
6:34 AM 7:50 PM
Waning Crescent, 11% visible
Pressure 30.05 in
Visibility 10.0 miles
Clouds Clear
Heat Index 81 °F
Dew Point 75 °F
Humidity 89%
Rainfall -999.00 in
Snow Depth Not available.
UV 0 out of 12
Pollen 7.60 out of 12
Air Quality Not available.
Flu Activity Not available.
METAR KNCA 220156Z AUTO 00000KT 10SM CLR 26/24 A3004 RMK AO2 SLP174 T02610239

More Conditions Fewer Conditions

Pressure 30.05 in
Visibility 10.0 miles
Clouds Clear
Heat Index 81 °F
Dew Point 75 °F
Humidity 89%
Rainfall -999.00 in
Snow Depth Not available.
UV 0 out of 12
Pollen 7.60 out of 12
Air Quality Not available.
Flu Activity Not available.
METAR KNCA 220156Z AUTO 00000KT 10SM CLR 26/24 A3004 RMK AO2 SLP174 T02610239

More Conditions Fewer Conditions

10-Day Weather Forecast

Almanac

Astronomy

Aug. 21, 2014 Rise Set
Actual Time 6:34 AM EDT 7:50 PM EDT
Civil Twilight 6:08 AM EDT 8:16 PM EDT
Nautical Twilight 5:37 AM EDT 8:47 PM EDT
Astronomical Twilight 5:04 AM EDT 9:20 PM EDT
Moon 3:07 AM EDT (8/21) 5:13 PM EDT (8/21)
Length of Visible Light 14h 07m
Length of Day
13h 15m
Tomorrow will be 1m 58s shorter.
Waning Crescent, 11% of the Moon is Illuminated
Today
Waning Crescent
Aug 25
New
Sep 2
First Quarter
Sep 8
Full
Sep 15
Last Quarter

Today's Extremes

State Highs State Lows

Community

WunderPhotos

Upload Photos

1,746,107 photos uploaded!

WunderBlogs® & News

Nearby

Snow Depth

Station Depth Elevation
No new snow has been reported.

Earthquake Activity

City Distance Mag. Time & Date
No recent earthquake activity has been reported nearby.
Minimum magnitude displayed is 2.5.

Coastal Water Temperatures

Place Temperature
Beaufort, NC 82.9 °F
Johnny Mercer Pier, Wrightsville Beach, NC 82.9 °F
Hatteras, NC 82.9 °F
Oregon Inlet Marina, NC 84.0 °F

Nearby Weather Stations